createdAt,value
2018-09-02T00:00:30.751Z,102101.21
2018-09-02T00:02:58.953Z,102104.00
2018-09-02T00:05:27.970Z,102098.55
2018-09-02T00:07:56.215Z,102102.06
2018-09-02T00:10:24.471Z,102098.91
2018-09-02T00:12:52.687Z,102096.23
2018-09-02T00:15:20.973Z,102090.91
2018-09-02T00:17:49.521Z,102092.59
2018-09-02T00:20:17.722Z,102085.28
2018-09-02T00:22:45.934Z,102085.28
2018-09-02T00:25:14.157Z,102088.92
2018-09-02T00:27:42.343Z,102084.59
2018-09-02T00:30:10.531Z,102085.93
2018-09-02T00:32:38.847Z,102085.09
2018-09-02T00:35:07.407Z,102080.73
2018-09-02T00:37:35.815Z,102082.91
2018-09-02T00:40:04.074Z,102084.59
2018-09-02T00:42:32.363Z,102083.27
2018-09-02T00:45:00.663Z,102079.27
2018-09-02T00:47:28.934Z,102084.92
2018-09-02T00:49:57.153Z,102078.91
2018-09-02T00:52:25.345Z,102076.86
2018-09-02T00:54:53.556Z,102081.34
2018-09-02T00:57:21.844Z,102085.83
2018-09-02T00:59:50.163Z,102084.75
2018-09-02T01:02:18.349Z,102083.55
2018-09-02T01:04:46.556Z,102081.85
2018-09-02T01:07:14.749Z,102076.29
2018-09-02T01:09:42.989Z,102083.93
2018-09-02T01:12:11.226Z,102085.27
2018-09-02T01:14:39.426Z,102089.98
2018-09-02T01:17:07.598Z,102094.20
2018-09-02T01:19:35.766Z,102094.20
2018-09-02T01:22:04.055Z,102099.41
2018-09-02T01:24:32.347Z,102096.03
2018-09-02T01:27:00.595Z,102104.39
2018-09-02T01:29:28.775Z,102105.00
2018-09-02T01:31:57.052Z,102106.83
2018-09-02T01:34:25.361Z,102103.92
2018-09-02T01:36:53.582Z,102102.23
2018-09-02T01:39:21.797Z,102105.91
2018-09-02T01:41:49.957Z,102106.39
2018-09-02T01:44:18.183Z,102101.19
2018-09-02T01:46:46.390Z,102104.83
2018-09-02T01:49:14.603Z,102104.83
2018-09-02T01:51:42.766Z,102109.44
2018-09-02T01:54:10.950Z,102104.23
2018-09-02T01:56:39.163Z,102110.53
2018-09-02T01:59:07.451Z,102110.41
2018-09-02T02:01:35.694Z,102106.89
2018-09-02T02:04:04.019Z,102099.13
2018-09-02T02:06:32.287Z,102101.08
2018-09-02T02:09:00.496Z,102100.72
2018-09-02T02:11:28.940Z,102099.63
2018-09-02T02:13:57.131Z,102103.88
2018-09-02T02:16:25.326Z,102103.17
2018-09-02T02:18:53.527Z,102097.51
2018-09-02T02:21:21.733Z,102099.94
2018-09-02T02:23:49.980Z,102096.42
2018-09-02T02:26:18.183Z,102097.27
2018-09-02T02:28:46.384Z,102092.42
2018-09-02T02:31:14.591Z,102092.42
2018-09-02T02:33:42.785Z,102087.71
2018-09-02T02:36:10.982Z,102090.27
2018-09-02T02:38:39.156Z,102086.88
2018-09-02T02:41:07.315Z,102083.13
2018-09-02T02:43:35.512Z,102077.11
2018-09-02T02:46:03.748Z,102075.88
2018-09-02T02:48:32.015Z,102077.33
2018-09-02T02:51:00.220Z,102071.28
2018-09-02T02:53:28.402Z,102070.56
2018-09-02T02:56:03.183Z,102064.88
2018-09-02T02:58:31.414Z,102067.17
2018-09-02T03:00:59.667Z,102064.52
2018-09-02T03:03:27.842Z,102062.95
2018-09-02T03:05:56.028Z,102065.13
2018-09-02T03:08:24.236Z,102059.44
2018-09-02T03:10:52.454Z,102055.72
2018-09-02T03:13:20.772Z,102053.67
2018-09-02T03:15:48.934Z,102056.69
2018-09-02T03:18:17.140Z,102059.36
2018-09-02T03:20:45.334Z,102065.66
2018-09-02T03:23:13.585Z,102059.60
2018-09-02T03:25:41.823Z,102060.22
2018-09-02T03:28:09.994Z,102057.55
2018-09-02T03:30:38.176Z,102060.34
2018-09-02T03:33:06.423Z,102055.74
2018-09-02T03:35:34.636Z,102058.20
2018-09-02T03:38:02.864Z,102069.34
2018-09-02T03:40:31.186Z,102054.33
2018-09-02T03:42:59.362Z,102060.14
2018-09-02T03:45:27.554Z,102057.48
2018-09-02T03:47:55.750Z,102055.06
2018-09-02T03:50:23.935Z,102050.95
2018-09-02T03:52:52.162Z,102051.06
2018-09-02T03:55:20.374Z,102047.56
2018-09-02T03:57:48.729Z,102050.70
2018-09-02T04:00:16.916Z,102059.06
2018-09-02T04:02:45.128Z,102048.41
2018-09-02T04:05:13.365Z,102042.72
2018-09-02T04:07:41.522Z,102048.17
2018-09-02T04:10:09.796Z,102044.42
2018-09-02T04:12:38.069Z,102045.75
2018-09-02T04:15:07.085Z,102048.29
2018-09-02T04:17:35.292Z,102039.58
2018-09-02T04:20:03.503Z,102032.69
2018-09-02T04:22:31.752Z,102034.98
2018-09-02T04:24:59.981Z,102038.65
2018-09-02T04:27:28.165Z,102039.74
2018-09-02T04:29:56.385Z,102036.00
2018-09-02T04:32:24.535Z,102032.61
2018-09-02T04:34:52.806Z,102037.33
2018-09-02T04:37:21.027Z,102036.36
2018-09-02T04:39:49.245Z,102040.36
2018-09-02T04:42:17.535Z,102041.33
2018-09-02T04:44:45.814Z,102030.44
2018-09-02T04:47:13.926Z,102039.06
2018-09-02T04:49:42.154Z,102032.53
2018-09-02T04:52:10.363Z,102037.86
2018-09-02T04:54:38.577Z,102040.16
2018-09-02T04:57:06.886Z,102039.31
2018-09-02T04:59:35.080Z,102046.09
2018-09-02T05:02:03.310Z,102047.30
2018-09-02T05:04:31.559Z,102044.76
2018-09-02T05:06:59.800Z,102037.13
2018-09-02T05:09:27.987Z,102038.10
2018-09-02T05:11:56.191Z,102042.58
2018-09-02T05:14:24.411Z,102037.73
2018-09-02T05:16:52.640Z,102040.52
2018-09-02T05:19:20.907Z,102038.83
2018-09-02T05:21:49.099Z,102042.98
2018-09-02T05:24:17.326Z,102043.46
2018-09-02T05:26:45.535Z,102047.81
2018-09-02T05:29:13.820Z,102047.81
2018-09-02T05:31:42.062Z,102046.81
2018-09-02T05:34:10.278Z,102046.33
2018-09-02T05:36:38.432Z,102048.51
2018-09-02T05:39:08.763Z,102048.88
2018-09-02T05:41:37.031Z,102055.89
2018-09-02T05:44:05.462Z,102055.28
2018-09-02T05:46:33.937Z,102058.67
2018-09-02T05:49:02.388Z,102058.06
2018-09-02T05:51:30.830Z,102057.09
2018-09-02T05:53:59.003Z,102056.85
2018-09-02T05:56:27.244Z,102058.55
2018-09-02T05:58:55.458Z,102066.86
2018-09-02T06:01:23.639Z,102064.92
2018-09-02T06:03:52.783Z,102063.34
2018-09-02T06:06:21.082Z,102061.05
2018-09-02T06:08:49.331Z,102063.95
2018-09-02T06:11:17.602Z,102068.79
2018-09-02T06:13:46.215Z,102070.48
2018-09-02T06:16:14.695Z,102062.38
2018-09-02T06:18:43.115Z,102060.08
2018-09-02T06:21:11.422Z,102069.12
2018-09-02T06:23:39.899Z,102067.17
2018-09-02T06:26:08.155Z,102074.08
2018-09-02T06:28:36.349Z,102065.96
2018-09-02T06:31:04.503Z,102073.83
2018-09-02T06:33:32.792Z,102062.20
2018-09-02T06:36:00.971Z,102057.73
2018-09-02T06:38:29.271Z,102063.66
2018-09-02T06:40:57.463Z,102056.35
2018-09-02T06:43:25.621Z,102057.56
2018-09-02T06:45:53.791Z,102055.98
2018-09-02T06:48:22.072Z,102057.91
2018-09-02T06:50:50.375Z,102062.62
2018-09-02T06:53:24.983Z,102058.02
2018-09-02T06:55:53.275Z,102061.41
2018-09-02T06:58:21.512Z,102059.44
2018-09-02T07:00:49.700Z,102060.87
2018-09-02T07:03:17.913Z,102050.33
2018-09-02T07:05:46.144Z,102049.14
2018-09-02T07:08:14.400Z,102050.55
2018-09-02T07:10:43.212Z,102054.29
2018-09-02T07:13:11.642Z,102055.73
2018-09-02T07:15:39.917Z,102053.30
2018-09-02T07:18:08.220Z,102047.48
2018-09-02T07:20:36.387Z,102053.05
2018-09-02T07:23:05.126Z,102051.06
2018-09-02T07:25:33.727Z,102048.27
2018-09-02T07:28:01.955Z,102050.55
2018-09-02T07:30:30.317Z,102052.48
2018-09-02T07:32:58.755Z,102049.07
2018-09-02T07:35:27.059Z,102046.84
2018-09-02T07:37:55.547Z,102041.61
2018-09-02T07:40:23.706Z,102039.52
2018-09-02T07:42:51.970Z,102041.94
2018-09-02T07:45:20.690Z,102040.44
2018-09-02T07:47:48.979Z,102043.20
2018-09-02T07:50:17.286Z,102035.56
2018-09-02T07:52:45.547Z,102040.50
2018-09-02T07:55:13.814Z,102033.22
2018-09-02T07:57:41.987Z,102040.08
2018-09-02T08:00:11.159Z,102042.00
2018-09-02T08:02:39.774Z,102030.71
2018-09-02T08:05:07.947Z,102035.17
2018-09-02T08:07:36.118Z,102029.27
2018-09-02T08:10:04.616Z,102025.37
2018-09-02T08:12:32.930Z,102022.44
2018-09-02T08:15:01.097Z,102023.23
2018-09-02T08:17:29.321Z,102019.30
2018-09-02T08:19:57.963Z,102019.41
2018-09-02T08:22:26.476Z,102021.55
2018-09-02T08:24:54.787Z,102017.60
2018-09-02T08:27:22.999Z,102013.11
2018-09-02T08:29:51.195Z,102012.13
2018-09-02T08:32:19.566Z,102009.33
2018-09-02T08:34:47.844Z,101998.24
2018-09-02T08:37:16.027Z,102007.02
2018-09-02T08:39:44.204Z,101999.94
2018-09-02T08:42:13.659Z,101996.36
2018-09-02T08:44:41.834Z,101994.09
2018-09-02T08:47:10.088Z,101987.86
2018-09-02T08:49:38.267Z,101991.80
2018-09-02T08:52:07.221Z,101993.89
2018-09-02T08:54:35.639Z,101989.83
2018-09-02T08:57:03.884Z,101975.21
2018-09-02T08:59:32.126Z,101976.31
2018-09-02T09:02:00.334Z,101968.58
2018-09-02T09:04:28.773Z,101970.66
2018-09-02T09:06:57.004Z,101966.58
2018-09-02T09:09:25.216Z,101971.75
2018-09-02T09:11:53.386Z,101962.78
2018-09-02T09:14:21.586Z,101966.23
2018-09-02T09:16:49.934Z,101964.14
2018-09-02T09:19:18.023Z,101955.41
2018-09-02T09:21:46.250Z,101951.14
2018-09-02T09:24:14.429Z,101958.80
2018-09-02T09:26:42.719Z,101957.41
2018-09-02T09:29:10.921Z,101948.66
2018-09-02T09:31:39.130Z,101949.23
2018-09-02T09:34:07.451Z,101950.69
2018-09-02T09:36:35.647Z,101939.36
2018-09-02T09:39:04.879Z,101938.80
2018-09-02T09:41:33.088Z,101946.06
2018-09-02T09:44:01.333Z,101942.94
2018-09-02T09:46:29.770Z,101932.63
2018-09-02T09:48:57.948Z,101922.28
2018-09-02T09:51:26.169Z,101923.72
2018-09-02T09:53:54.003Z,101921.94
2018-09-02T09:56:22.193Z,101917.17
2018-09-02T09:58:50.510Z,101922.58
2018-09-02T10:01:18.750Z,101920.48
2018-09-02T10:03:47.025Z,101910.31
2018-09-02T10:06:15.134Z,101903.53
2018-09-02T10:08:43.422Z,101905.29
2018-09-02T10:11:11.624Z,101898.81
2018-09-02T10:13:39.830Z,101899.56
2018-09-02T10:16:08.037Z,101892.27
2018-09-02T10:18:36.211Z,101895.19
2018-09-02T10:21:04.454Z,101899.27
2018-09-02T10:23:32.645Z,101892.10
2018-09-02T10:26:00.864Z,101896.39
2018-09-02T10:28:29.185Z,101892.88
2018-09-02T10:30:57.543Z,101890.55
2018-09-02T10:33:25.900Z,101886.88
2018-09-02T10:36:00.770Z,101884.20
2018-09-02T10:38:29.040Z,101871.44
2018-09-02T10:40:57.268Z,101870.08
2018-09-02T10:43:25.452Z,101873.78
2018-09-02T10:45:53.654Z,101876.61
2018-09-02T10:48:21.908Z,101871.08
2018-09-02T10:50:50.136Z,101861.33
2018-09-02T10:53:18.303Z,101868.73
2018-09-02T10:55:46.990Z,101865.36
2018-09-02T10:58:15.258Z,101865.36
2018-09-02T11:00:43.542Z,101861.34
2018-09-02T11:03:11.770Z,101868.42
2018-09-02T11:05:40.023Z,101861.69
2018-09-02T11:08:08.322Z,101859.92
2018-09-02T11:10:36.539Z,101854.28
2018-09-02T11:13:04.879Z,101858.33
2018-09-02T11:15:33.038Z,101850.08
2018-09-02T11:18:01.323Z,101833.45
2018-09-02T11:20:29.551Z,101840.49
2018-09-02T11:22:58.202Z,101841.84
2018-09-02T11:25:26.510Z,101837.63
2018-09-02T11:27:54.714Z,101829.53
2018-09-02T11:30:22.926Z,101834.31
2018-09-02T11:32:51.166Z,101834.93
2018-09-02T11:35:19.586Z,101832.74
2018-09-02T11:37:47.823Z,101826.70
2018-09-02T11:40:16.214Z,101820.84
2018-09-02T11:42:44.454Z,101824.09
2018-09-02T11:45:12.750Z,101814.08
2018-09-02T11:47:40.956Z,101813.84
2018-09-02T11:50:09.217Z,101810.41
2018-09-02T11:52:37.482Z,101791.25
2018-09-02T11:55:05.758Z,101807.56
2018-09-02T11:57:35.357Z,101810.09
2018-09-02T12:00:03.853Z,101806.95
2018-09-02T12:02:32.168Z,101808.08
2018-09-02T12:05:00.433Z,101807.61
2018-09-02T12:07:28.647Z,101801.92
2018-09-02T12:09:56.860Z,101799.34
2018-09-02T12:12:25.069Z,101798.44
2018-09-02T12:14:53.505Z,101795.75
2018-09-02T12:17:21.599Z,101788.14
2018-09-02T12:19:49.795Z,101793.48
2018-09-02T12:22:18.054Z,101789.55
2018-09-02T12:24:46.310Z,101787.59
2018-09-02T12:27:14.548Z,101785.87
2018-09-02T12:29:42.778Z,101784.23
2018-09-02T12:32:10.946Z,101778.12
2018-09-02T12:34:45.699Z,101775.63
2018-09-02T12:37:13.987Z,101775.12
2018-09-02T12:39:42.249Z,101762.77
2018-09-02T12:42:10.518Z,101771.53
2018-09-02T12:44:39.598Z,101771.55
2018-09-02T12:47:07.954Z,101769.00
2018-09-02T12:49:36.142Z,101768.48
2018-09-02T12:52:04.511Z,101763.20
2018-09-02T12:54:32.696Z,101766.16
2018-09-02T12:57:00.988Z,101753.30
2018-09-02T12:59:29.216Z,101759.22
2018-09-02T13:01:57.763Z,101752.48
2018-09-02T13:04:26.006Z,101750.45
2018-09-02T13:06:54.256Z,101745.09
2018-09-02T13:09:22.592Z,101735.39
2018-09-02T13:11:50.879Z,101742.00
2018-09-02T13:14:19.319Z,101743.46
2018-09-02T13:16:47.556Z,101734.81
2018-09-02T13:19:15.887Z,101732.30
2018-09-02T13:21:44.460Z,101732.08
2018-09-02T13:24:12.688Z,101722.17
2018-09-02T13:26:41.007Z,101727.88
2018-09-02T13:29:09.175Z,101724.84
2018-09-02T13:31:37.494Z,101722.84
2018-09-02T13:34:05.752Z,101708.34
2018-09-02T13:36:33.971Z,101713.83
2018-09-02T13:39:02.269Z,101710.11
2018-09-02T13:41:30.520Z,101715.92
2018-09-02T13:43:58.754Z,101715.59
2018-09-02T13:46:27.009Z,101703.60
2018-09-02T13:48:55.548Z,101711.08
2018-09-02T13:51:23.868Z,101704.58
2018-09-02T13:53:52.051Z,101696.34
2018-09-02T13:56:20.246Z,101699.58
2018-09-02T13:58:48.566Z,101694.93
2018-09-02T14:01:16.811Z,101689.91
2018-09-02T14:03:45.025Z,101691.27
2018-09-02T14:06:13.322Z,101688.36
2018-09-02T14:08:41.667Z,101689.49
2018-09-02T14:11:16.512Z,101683.00
2018-09-02T14:13:44.746Z,101681.39
2018-09-02T14:16:12.954Z,101679.87
2018-09-02T14:18:41.238Z,101676.37
2018-09-02T14:21:09.619Z,101669.99
2018-09-02T14:23:37.817Z,101664.37
2018-09-02T14:26:06.158Z,101665.55
2018-09-02T14:28:34.473Z,101660.52
2018-09-02T14:31:02.965Z,101663.41
2018-09-02T14:33:31.219Z,101655.69
2018-09-02T14:35:59.547Z,101657.30
2018-09-02T14:38:27.868Z,101654.24
2018-09-02T14:40:56.513Z,101648.38
2018-09-02T14:43:24.942Z,101645.33
2018-09-02T14:45:53.209Z,101643.67
2018-09-02T14:48:21.483Z,101641.39
2018-09-02T14:50:49.841Z,101635.99
2018-09-02T14:53:17.933Z,101635.20
2018-09-02T14:55:46.372Z,101639.08
2018-09-02T14:58:14.739Z,101636.43
2018-09-02T15:00:43.112Z,101633.81
2018-09-02T15:03:11.338Z,101639.77
2018-09-02T15:05:39.594Z,101636.37
2018-09-02T15:08:07.887Z,101630.14
2018-09-02T15:10:36.091Z,101631.81
2018-09-02T15:13:04.275Z,101631.86
2018-09-02T15:15:32.513Z,101631.25
2018-09-02T15:18:00.739Z,101628.16
2018-09-02T15:20:28.943Z,101623.84
2018-09-02T15:22:57.255Z,101625.05
2018-09-02T15:25:25.475Z,101616.30
2018-09-02T15:27:53.718Z,101619.00
2018-09-02T15:30:22.599Z,101616.27
2018-09-02T15:32:50.789Z,101618.03
2018-09-02T15:35:19.090Z,101615.52
2018-09-02T15:37:47.295Z,101608.45
2018-09-02T15:40:15.574Z,101610.50
2018-09-02T15:42:43.772Z,101608.50
2018-09-02T15:45:12.054Z,101609.20
2018-09-02T15:47:40.288Z,101610.50
2018-09-02T15:50:08.920Z,101600.33
2018-09-02T15:52:37.249Z,101598.58
2018-09-02T15:55:05.603Z,101600.66
2018-09-02T15:57:33.834Z,101597.61
2018-09-02T16:00:02.069Z,101600.02
2018-09-02T16:02:30.393Z,101599.02
2018-09-02T16:04:58.553Z,101592.31
2018-09-02T16:07:30.466Z,101599.06
2018-09-02T16:09:59.501Z,101599.55
2018-09-02T16:12:27.748Z,101598.65
2018-09-02T16:14:56.508Z,101589.52
2018-09-02T16:17:24.780Z,101587.48
2018-09-02T16:19:53.023Z,101591.22
2018-09-02T16:22:21.268Z,101595.65
2018-09-02T16:24:49.479Z,101598.15
2018-09-02T16:27:17.678Z,101595.44
2018-09-02T16:29:46.023Z,101595.82
2018-09-02T16:32:14.125Z,101600.55
2018-09-02T16:34:42.372Z,101587.00
2018-09-02T16:37:10.636Z,101591.48
2018-09-02T16:39:39.355Z,101586.53
2018-09-02T16:42:07.531Z,101572.22
2018-09-02T16:44:35.734Z,101582.58
2018-09-02T16:47:03.992Z,101592.72
2018-09-02T16:49:32.238Z,101585.00
2018-09-02T16:52:00.447Z,101588.81
2018-09-02T16:54:28.640Z,101585.55
2018-09-02T16:56:56.813Z,101585.64
2018-09-02T16:59:25.095Z,101590.13
2018-09-02T17:01:53.297Z,101585.66
2018-09-02T17:04:22.406Z,101590.88
2018-09-02T17:06:50.613Z,101595.09
2018-09-02T17:09:18.855Z,101597.36
2018-09-02T17:11:47.230Z,101599.76
2018-09-02T17:14:15.337Z,101599.02
2018-09-02T17:16:43.623Z,101601.75
2018-09-02T17:19:17.745Z,101602.14
2018-09-02T17:21:45.992Z,101596.50
2018-09-02T17:24:14.258Z,101593.00
2018-09-02T17:26:42.468Z,101595.61
2018-09-02T17:29:10.715Z,101602.55
2018-09-02T17:31:38.889Z,101602.06
2018-09-02T17:34:07.243Z,101602.09
2018-09-02T17:36:35.459Z,101602.15
2018-09-02T17:39:04.823Z,101602.51
2018-09-02T17:41:33.014Z,101588.39
2018-09-02T17:44:01.225Z,101595.14
2018-09-02T17:46:29.426Z,101589.44
2018-09-02T17:48:57.636Z,101590.48
2018-09-02T17:51:25.875Z,101593.85
2018-09-02T17:53:54.133Z,101585.80
2018-09-02T17:56:22.352Z,101592.20
2018-09-02T17:58:50.616Z,101593.90
2018-09-02T18:01:18.911Z,101595.92
2018-09-02T18:03:47.194Z,101594.64
2018-09-02T18:06:15.424Z,101599.69
2018-09-02T18:08:43.673Z,101599.53
2018-09-02T18:11:11.934Z,101606.28
2018-09-02T18:13:40.383Z,101606.78
2018-09-02T18:16:09.144Z,101610.16
2018-09-02T18:18:37.855Z,101606.50
2018-09-02T18:21:06.072Z,101611.22
2018-09-02T18:23:34.257Z,101611.56
2018-09-02T18:26:02.655Z,101618.97
2018-09-02T18:28:37.504Z,101616.97
2018-09-02T18:31:07.107Z,101620.17
2018-09-02T18:33:35.290Z,101625.76
2018-09-02T18:36:03.516Z,101634.84
2018-09-02T18:38:31.755Z,101638.20
2018-09-02T18:40:59.960Z,101649.97
2018-09-02T18:43:28.403Z,101645.27
2018-09-02T18:45:56.672Z,101653.00
2018-09-02T18:48:24.879Z,101647.46
2018-09-02T18:50:53.091Z,101645.12
2018-09-02T18:53:21.315Z,101642.64
2018-09-02T18:55:49.528Z,101652.22
2018-09-02T18:58:17.759Z,101644.33
2018-09-02T19:00:46.043Z,101648.37
2018-09-02T19:03:14.302Z,101651.05
2018-09-02T19:05:42.455Z,101648.54
2018-09-02T19:08:10.679Z,101651.06
2018-09-02T19:10:39.002Z,101651.73
2018-09-02T19:13:08.237Z,101645.37
2018-09-02T19:15:36.494Z,101645.03
2018-09-02T19:18:04.695Z,101646.05
2018-09-02T19:20:32.910Z,101645.55
2018-09-02T19:23:01.108Z,101647.39
2018-09-02T19:25:29.356Z,101647.39
2018-09-02T19:27:57.608Z,101644.38
2018-09-02T19:30:25.791Z,101639.17
2018-09-02T19:32:54.018Z,101646.72
2018-09-02T19:35:22.438Z,101638.33
2018-09-02T19:37:50.723Z,101643.37
2018-09-02T19:40:18.925Z,101647.40
2018-09-02T19:42:47.082Z,101642.70
2018-09-02T19:45:15.316Z,101644.55
2018-09-02T19:47:43.542Z,101638.00
2018-09-02T19:50:11.724Z,101628.59
2018-09-02T19:52:39.922Z,101626.63
2018-09-02T19:55:08.140Z,101623.94
2018-09-02T19:57:36.368Z,101626.29
2018-09-02T20:00:04.778Z,101632.34
2018-09-02T20:02:33.049Z,101620.92
2018-09-02T20:05:01.271Z,101620.92
2018-09-02T20:07:29.600Z,101618.07
2018-09-02T20:09:58.117Z,101618.91
2018-09-02T20:12:26.358Z,101628.65
2018-09-02T20:14:54.572Z,101614.88
2018-09-02T20:17:22.898Z,101614.55
2018-09-02T20:19:51.094Z,101610.19
2018-09-02T20:22:19.333Z,101614.21
2018-09-02T20:24:47.963Z,101614.89
2018-09-02T20:27:16.276Z,101610.19
2018-09-02T20:29:44.563Z,101605.86
2018-09-02T20:32:12.897Z,101603.17
2018-09-02T20:34:41.285Z,101606.53
2018-09-02T20:37:09.607Z,101610.23
2018-09-02T20:39:37.871Z,101605.87
2018-09-02T20:42:06.217Z,101602.84
2018-09-02T20:44:34.472Z,101607.20
2018-09-02T20:47:02.872Z,101606.54
2018-09-02T20:49:31.072Z,101607.55
2018-09-02T20:51:59.471Z,101599.48
2018-09-02T20:54:27.819Z,101600.50
2018-09-02T20:56:56.018Z,101601.17
2018-09-02T20:59:24.214Z,101600.84
2018-09-02T21:01:52.584Z,101606.71
2018-09-02T21:04:20.876Z,101601.71
2018-09-02T21:06:49.099Z,101605.91
2018-09-02T21:09:18.033Z,101607.42
2018-09-02T21:11:46.416Z,101603.90
2018-09-02T21:14:14.643Z,101602.89
2018-09-02T21:16:42.843Z,101602.89
2018-09-02T21:19:11.128Z,101607.59
2018-09-02T21:21:39.352Z,101613.47
2018-09-02T21:24:07.558Z,101603.73
2018-09-02T21:26:35.834Z,101608.94
2018-09-02T21:29:04.079Z,101607.92
2018-09-02T21:31:32.355Z,101603.56
2018-09-02T21:34:00.568Z,101601.89
2018-09-02T21:36:28.892Z,101596.19
2018-09-02T21:38:57.187Z,101600.88
2018-09-02T21:41:25.396Z,101597.86
2018-09-02T21:43:53.652Z,101599.91
2018-09-02T21:46:21.879Z,101592.19
2018-09-02T21:48:50.053Z,101589.17
2018-09-02T21:51:18.303Z,101584.81
2018-09-02T21:53:46.474Z,101581.79
2018-09-02T21:56:14.682Z,101578.44
2018-09-02T21:58:42.883Z,101577.77
2018-09-02T22:01:11.126Z,101575.08
2018-09-02T22:03:39.377Z,101582.13
2018-09-02T22:06:07.639Z,101575.08
2018-09-02T22:08:36.134Z,101572.23
2018-09-02T22:11:04.384Z,101575.59
2018-09-02T22:13:32.728Z,101575.25
2018-09-02T22:16:00.939Z,101569.05
2018-09-02T22:18:29.187Z,101573.23
2018-09-02T22:20:57.439Z,101577.27
2018-09-02T22:23:25.709Z,101574.45
2018-09-02T22:25:53.934Z,101570.72
2018-09-02T22:28:22.175Z,101570.05
2018-09-02T22:30:50.386Z,101573.73
2018-09-02T22:33:18.691Z,101569.05
2018-09-02T22:35:46.894Z,101566.02
2018-09-02T22:38:15.403Z,101557.80
2018-09-02T22:40:43.975Z,101560.48
2018-09-02T22:43:12.226Z,101559.15
2018-09-02T22:45:40.430Z,101557.30
2018-09-02T22:48:08.938Z,101555.96
2018-09-02T22:50:37.134Z,101553.11
2018-09-02T22:53:05.319Z,101553.95
2018-09-02T22:55:33.555Z,101547.91
2018-09-02T22:58:01.955Z,101547.58
2018-09-02T23:00:30.037Z,101541.87
2018-09-02T23:02:58.329Z,101548.08
2018-09-02T23:05:26.544Z,101543.22
2018-09-02T23:07:54.799Z,101544.55
2018-09-02T23:10:23.061Z,101541.87
2018-09-02T23:12:51.384Z,101543.22
2018-09-02T23:15:19.566Z,101542.55
2018-09-02T23:17:47.804Z,101541.20
2018-09-02T23:20:16.888Z,101541.20
2018-09-02T23:22:45.115Z,101533.83
2018-09-02T23:25:13.451Z,101530.50
2018-09-02T23:27:41.631Z,101528.32
2018-09-02T23:30:09.839Z,101519.27
2018-09-02T23:32:38.019Z,101512.22
2018-09-02T23:35:12.570Z,101514.06
2018-09-02T23:37:40.843Z,101507.70
2018-09-02T23:40:09.038Z,101505.34
2018-09-02T23:42:37.227Z,101510.72
2018-09-02T23:45:05.911Z,101511.59
2018-09-02T23:47:34.133Z,101504.55
2018-09-02T23:50:02.362Z,101504.20
2018-09-02T23:52:30.555Z,101501.19
2018-09-02T23:54:58.748Z,101500.02
2018-09-02T23:57:26.942Z,101497.17
2018-09-02T23:59:55.143Z,101489.79
